Time;durP1;ratioP1;P1;durP2;ratioP2;P2;SDS_P1;SDS_P2;PMS_P1;PMS_P2;Temp;Humidity;BMP_temperature;BMP_pressure;BME280_temperature;BME280_humidity;BME280_pressure;Samples;Min_cycle;Max_cycle;Signal;HPM_P1;HPM_P2
2024/01/09 00:02:16;;;;;;;18.58;9.25;;;;;;;-8.13;100.00;98107.78;5055935;28;20067;-61
2024/01/09 00:04:42;;;;;;;13.48;8.18;;;;;;;-8.05;100.00;98102.81;5050305;28;20076;-61
2024/01/09 00:07:09;;;;;;;17.50;8.20;;;;;;;-8.02;100.00;98105.22;5057080;28;20036;-61
2024/01/09 00:09:36;;;;;;;13.55;7.88;;;;;;;-8.00;100.00;98098.03;5041997;28;20125;-60
2024/01/09 00:12:03;;;;;;;23.08;9.35;;;;;;;-8.08;100.00;98100.41;5053669;28;20052;-61
2024/01/09 00:14:29;;;;;;;13.93;7.45;;;;;;;-8.10;100.00;98103.13;5050886;28;20547;-61
2024/01/09 00:16:56;;;;;;;13.85;7.32;;;;;;;-8.10;100.00;98099.69;5038563;28;20467;-61
2024/01/09 00:19:22;;;;;;;15.95;8.02;;;;;;;-8.12;100.00;98098.94;5031636;28;20025;-61
2024/01/09 00:21:50;;;;;;;15.20;8.07;;;;;;;-8.18;100.00;98084.50;5056010;28;20057;-61
2024/01/09 00:24:17;;;;;;;16.73;8.10;;;;;;;-8.23;100.00;98097.13;5047233;28;20044;-61
2024/01/09 00:26:44;;;;;;;20.05;8.82;;;;;;;-8.25;100.00;98094.63;5049279;28;20048;-60
2024/01/09 00:29:10;;;;;;;17.52;7.53;;;;;;;-8.15;100.00;98096.56;5044838;28;20075;-61
2024/01/09 00:31:37;;;;;;;21.23;8.27;;;;;;;-8.14;100.00;98093.00;5044781;28;20046;-61
2024/01/09 00:34:04;;;;;;;19.08;9.45;;;;;;;-8.19;100.00;98101.19;5050312;28;20469;-61
2024/01/09 00:36:30;;;;;;;15.63;8.15;;;;;;;-8.26;100.00;98098.19;5041297;28;20061;-61
2024/01/09 00:38:57;;;;;;;15.23;7.85;;;;;;;-8.18;100.00;98094.16;5037843;28;20471;-60
2024/01/09 00:41:23;;;;;;;14.23;7.78;;;;;;;-8.16;100.00;98102.75;5044868;28;20074;-61
2024/01/09 00:43:50;;;;;;;19.58;8.50;;;;;;;-8.18;100.00;98109.94;5045288;28;20707;-61
2024/01/09 00:46:17;;;;;;;20.77;11.05;;;;;;;-8.25;100.00;98102.50;5047096;28;20057;-61
2024/01/09 00:48:43;;;;;;;15.88;8.05;;;;;;;-8.32;100.00;98096.03;5047804;28;20137;-61
2024/01/09 00:51:10;;;;;;;19.88;8.85;;;;;;;-8.35;100.00;98101.50;5060902;28;20032;-61
2024/01/09 00:53:36;;;;;;;19.17;7.38;;;;;;;-8.31;100.00;98095.09;5049033;28;20046;-61
2024/01/09 00:56:03;;;;;;;12.45;7.75;;;;;;;-8.32;100.00;98098.66;5050741;28;20066;-61
2024/01/09 00:58:30;;;;;;;19.48;9.05;;;;;;;-8.33;100.00;98094.38;5051748;28;20036;-61
2024/01/09 01:00:56;;;;;;;16.75;8.13;;;;;;;-8.39;100.00;98100.06;5042672;28;20044;-61
2024/01/09 01:03:23;;;;;;;14.25;7.50;;;;;;;-8.39;100.00;98103.53;5058664;28;20044;-61
2024/01/09 01:05:49;;;;;;;14.05;8.63;;;;;;;-8.39;100.00;98102.69;5055582;28;20065;-62
2024/01/09 01:08:16;;;;;;;16.55;8.20;;;;;;;-8.38;100.00;98106.97;5058343;28;20037;-61
2024/01/09 01:10:43;;;;;;;13.45;7.60;;;;;;;-8.40;100.00;98111.53;5048929;28;20033;-61
2024/01/09 01:13:09;;;;;;;15.63;7.53;;;;;;;-8.45;100.00;98111.84;5056086;28;20454;-61
2024/01/09 01:15:36;;;;;;;14.85;8.15;;;;;;;-8.44;100.00;98110.91;5051212;28;20051;-61
2024/01/09 01:18:02;;;;;;;16.73;8.05;;;;;;;-8.53;100.00;98111.59;5059388;28;20132;-61
2024/01/09 01:20:29;;;;;;;13.85;6.88;;;;;;;-8.53;100.00;98114.25;5050340;28;20404;-61
2024/01/09 01:22:56;;;;;;;15.35;7.55;;;;;;;-8.58;100.00;98122.47;5053383;28;20315;-61
2024/01/09 01:25:22;;;;;;;16.05;8.32;;;;;;;-8.59;100.00;98118.16;5042389;28;20044;-61
2024/01/09 01:27:50;;;;;;;13.85;7.82;;;;;;;-8.57;100.00;98111.00;5054866;28;20133;-61
2024/01/09 01:30:18;;;;;;;16.30;8.77;;;;;;;-8.56;100.00;98114.47;5052210;28;20037;-60
2024/01/09 01:32:45;;;;;;;17.42;7.35;;;;;;;-8.54;100.00;98117.81;5056956;28;20041;-61
2024/01/09 01:35:12;;;;;;;15.80;9.13;;;;;;;-8.60;100.00;98121.72;5050971;28;20124;-61
2024/01/09 01:37:38;;;;;;;14.40;8.35;;;;;;;-8.59;100.00;98118.16;5045120;28;20065;-61
2024/01/09 01:40:06;;;;;;;19.20;7.93;;;;;;;-8.63;100.00;98121.94;5054297;28;20595;-60
2024/01/09 01:42:32;;;;;;;15.68;7.90;;;;;;;-8.65;100.00;98116.81;5053309;28;20072;-60
2024/01/09 01:44:59;;;;;;;14.45;7.75;;;;;;;-8.61;100.00;98120.06;5057241;28;20045;-60
2024/01/09 01:47:26;;;;;;;14.07;7.32;;;;;;;-8.65;100.00;98121.22;5048656;28;20499;-60
2024/01/09 01:49:52;;;;;;;16.52;8.02;;;;;;;-8.65;100.00;98119.44;5052117;28;20072;-61
2024/01/09 01:52:19;;;;;;;15.20;7.80;;;;;;;-8.70;100.00;98125.97;5054402;28;20036;-61
2024/01/09 01:54:46;;;;;;;17.67;8.07;;;;;;;-8.72;100.00;98120.00;5051067;28;20112;-61
2024/01/09 01:57:13;;;;;;;14.18;7.07;;;;;;;-8.73;100.00;98121.78;5050267;28;20037;-61
2024/01/09 01:59:42;;;;;;;16.42;7.38;;;;;;;-8.73;100.00;98120.94;5048333;28;20041;-61
2024/01/09 02:02:13;;;;;;;15.90;8.07;;;;;;;-8.72;100.00;98120.84;5046032;28;20041;-61
2024/01/09 02:04:40;;;;;;;18.67;8.48;;;;;;;-8.73;100.00;98121.78;5049988;28;20432;-61
2024/01/09 02:07:07;;;;;;;15.05;8.15;;;;;;;-8.76;100.00;98116.75;5049200;28;20069;-60
2024/01/09 02:09:36;;;;;;;17.02;9.55;;;;;;;-8.71;100.00;98121.69;5041703;28;20106;-61
2024/01/09 02:12:04;;;;;;;17.05;8.32;;;;;;;-8.73;100.00;98118.31;5050758;28;20040;-61
2024/01/09 02:14:30;;;;;;;18.80;8.90;;;;;;;-8.75;100.00;98121.91;5048934;28;20041;-61
2024/01/09 02:16:57;;;;;;;16.33;8.20;;;;;;;-8.75;100.00;98116.66;5057554;28;20137;-61
2024/01/09 02:19:24;;;;;;;13.68;8.13;;;;;;;-8.77;100.00;98121.16;5055149;28;20044;-61
2024/01/09 02:21:51;;;;;;;15.77;8.52;;;;;;;-8.74;100.00;98117.47;5056195;28;20441;-62
2024/01/09 02:24:18;;;;;;;17.38;8.40;;;;;;;-8.75;100.00;98123.69;5041736;28;20176;-61
2024/01/09 02:26:51;;;;;;;15.32;8.43;;;;;;;-8.76;100.00;98114.13;5045434;28;20033;-61
2024/01/09 02:29:33;;;;;;;18.08;8.52;;;;;;;-8.73;100.00;98119.16;5052576;28;20068;-61
2024/01/09 02:32:02;;;;;;;12.40;7.30;;;;;;;-8.81;100.00;98114.44;5045588;28;20230;-61
2024/01/09 02:34:31;;;;;;;12.73;7.03;;;;;;;-8.85;100.00;98120.88;5055069;28;20043;-62
2024/01/09 02:36:58;;;;;;;14.10;7.35;;;;;;;-8.79;100.00;98116.97;5045762;28;20055;-61
2024/01/09 02:39:29;;;;;;;14.68;7.43;;;;;;;-8.79;100.00;98109.94;5048235;28;20446;-61
2024/01/09 02:41:55;;;;;;;18.83;8.25;;;;;;;-8.80;100.00;98110.06;5033233;28;20037;-61
2024/01/09 02:44:22;;;;;;;17.15;8.35;;;;;;;-8.82;100.00;98110.16;5041081;28;20041;-62
2024/01/09 02:46:49;;;;;;;19.10;8.10;;;;;;;-8.82;100.00;98104.09;5042614;28;20099;-61
2024/01/09 02:49:15;;;;;;;13.25;7.90;;;;;;;-8.80;100.00;98104.81;5042564;28;20064;-61
2024/01/09 02:51:42;;;;;;;14.98;7.57;;;;;;;-8.81;100.00;98101.31;5038596;28;20037;-61
2024/01/09 02:54:08;;;;;;;17.05;7.70;;;;;;;-8.80;100.00;98105.66;5044238;28;20043;-61
2024/01/09 02:56:38;;;;;;;19.88;9.05;;;;;;;-8.80;100.00;98096.91;5042293;28;20540;-61
2024/01/09 02:59:05;;;;;;;14.82;9.05;;;;;;;-8.81;100.00;98096.06;5035625;28;20034;-61
2024/01/09 03:01:32;;;;;;;17.00;8.55;;;;;;;-8.86;100.00;98098.19;5039889;28;20125;-61
2024/01/09 03:03:58;;;;;;;15.73;8.55;;;;;;;-8.92;100.00;98096.84;5038684;28;20083;-59
2024/01/09 03:06:25;;;;;;;20.98;8.73;;;;;;;-8.97;100.00;98098.97;5043586;28;20095;-62
2024/01/09 03:08:52;;;;;;;16.73;8.40;;;;;;;-8.96;100.00;98103.25;5040942;28;20064;-61
2024/01/09 03:11:19;;;;;;;15.57;7.65;;;;;;;-8.96;100.00;98099.81;5039657;28;20041;-61
2024/01/09 03:13:46;;;;;;;14.10;7.20;;;;;;;-8.94;100.00;98103.16;5034603;28;20362;-61
2024/01/09 03:16:13;;;;;;;15.95;7.80;;;;;;;-8.96;100.00;98107.69;5035828;28;20052;-61
2024/01/09 03:18:41;;;;;;;14.77;7.78;;;;;;;-8.99;100.00;98100.03;5040243;28;20673;-62
2024/01/09 03:21:07;;;;;;;16.75;8.95;;;;;;;-8.93;100.00;98103.06;5041134;28;20048;-61
2024/01/09 03:23:34;;;;;;;17.60;9.05;;;;;;;-8.87;100.00;98101.78;5037747;28;20393;-61
2024/01/09 03:26:01;;;;;;;15.43;7.05;;;;;;;-8.89;100.00;98094.00;5038916;28;20045;-62
2024/01/09 03:28:28;;;;;;;14.38;7.68;;;;;;;-8.98;100.00;98086.81;5042537;28;20056;-61
2024/01/09 03:30:55;;;;;;;15.73;8.02;;;;;;;-9.01;100.00;98094.88;5044144;28;20231;-62
2024/01/09 03:33:21;;;;;;;12.68;7.47;;;;;;;-8.98;100.00;98094.69;5036267;28;20068;-61
2024/01/09 03:35:48;;;;;;;18.63;8.70;;;;;;;-9.02;100.00;98096.69;5041709;28;20659;-61
2024/01/09 03:38:15;;;;;;;17.15;8.75;;;;;;;-9.05;100.00;98093.44;5041564;28;20036;-61
2024/01/09 03:40:43;;;;;;;18.02;8.02;;;;;;;-9.06;100.00;98094.38;5040166;28;20127;-61
2024/01/09 03:43:09;;;;;;;18.73;9.10;;;;;;;-9.09;100.00;98097.22;5040486;28;20070;-61
2024/01/09 03:45:36;;;;;;;16.13;7.75;;;;;;;-9.10;100.00;98098.19;5033303;28;20038;-61
2024/01/09 03:48:02;;;;;;;16.98;8.38;;;;;;;-9.12;100.00;98095.66;5045059;28;20516;-61
2024/01/09 03:50:29;;;;;;;13.88;7.88;;;;;;;-9.15;100.00;98098.50;5040114;28;20044;-62
2024/01/09 03:52:56;;;;;;;15.32;8.48;;;;;;;-9.10;100.00;98096.41;5038163;28;20094;-62
2024/01/09 03:55:23;;;;;;;15.55;7.38;;;;;;;-9.16;100.00;98096.81;5040509;28;20100;-61
2024/01/09 03:57:50;;;;;;;21.02;8.60;;;;;;;-9.12;100.00;98098.28;5040646;28;20045;-61
2024/01/09 04:00:16;;;;;;;12.90;6.60;;;;;;;-9.08;100.00;98098.88;5045337;28;20113;-61
2024/01/09 04:02:43;;;;;;;19.45;9.20;;;;;;;-9.09;100.00;98103.31;5039539;28;20048;-62
2024/01/09 04:05:09;;;;;;;16.38;8.15;;;;;;;-9.06;100.00;98095.25;5041529;28;20041;-62
2024/01/09 04:07:36;;;;;;;19.17;8.40;;;;;;;-9.10;100.00;98091.16;5041393;28;20389;-61
2024/01/09 04:10:03;;;;;;;19.02;8.73;;;;;;;-9.10;100.00;98096.41;5043031;28;20076;-62
2024/01/09 04:12:29;;;;;;;16.70;8.77;;;;;;;-9.10;100.00;98095.56;5043190;28;20048;-62
2024/01/09 04:14:56;;;;;;;15.68;7.97;;;;;;;-9.10;100.00;98099.03;5040153;28;20428;-62
2024/01/09 04:17:23;;;;;;;23.05;10.88;;;;;;;-9.21;100.00;98101.56;5041016;28;20047;-61
2024/01/09 04:19:49;;;;;;;17.85;7.95;;;;;;;-9.37;100.00;98102.63;5044309;28;20053;-62
2024/01/09 04:22:16;;;;;;;15.35;9.10;;;;;;;-9.35;100.00;98105.16;5048029;28;20051;-62
2024/01/09 04:24:42;;;;;;;14.23;7.68;;;;;;;-9.41;100.00;98102.00;5046254;28;20052;-62
2024/01/09 04:27:09;;;;;;;19.20;9.43;;;;;;;-9.36;100.00;98088.59;5045188;28;20587;-62
2024/01/09 04:29:35;;;;;;;16.52;9.27;;;;;;;-9.42;100.00;98099.50;5041836;28;20033;-61
2024/01/09 04:32:02;;;;;;;16.17;7.78;;;;;;;-9.19;100.00;98099.66;5047313;28;20091;-61
2024/01/09 04:34:29;;;;;;;16.73;8.40;;;;;;;-9.13;100.00;98091.38;5043214;28;20416;-62
2024/01/09 04:36:55;;;;;;;21.25;9.30;;;;;;;-9.06;100.00;98094.38;5037635;28;20756;-62
2024/01/09 04:39:22;;;;;;;17.77;8.63;;;;;;;-9.14;100.00;98098.38;5045173;28;20061;-61
2024/01/09 04:41:48;;;;;;;22.00;8.95;;;;;;;-9.15;100.00;98094.09;5041193;28;20316;-61
2024/01/09 04:44:15;;;;;;;19.33;9.00;;;;;;;-9.15;100.00;98096.72;5046637;28;20041;-61
2024/01/09 04:46:42;;;;;;;13.82;7.40;;;;;;;-9.14;100.00;98093.13;5042350;28;20036;-60
2024/01/09 04:49:08;;;;;;;15.52;7.47;;;;;;;-9.12;100.00;98094.81;5037821;28;20039;-61
2024/01/09 04:51:35;;;;;;;15.75;8.63;;;;;;;-9.14;100.00;98100.19;5041018;28;20134;-63
2024/01/09 04:54:01;;;;;;;17.60;8.32;;;;;;;-8.97;100.00;98098.97;5042362;28;20086;-63
2024/01/09 04:56:28;;;;;;;18.13;8.63;;;;;;;-9.03;100.00;98095.00;5043345;28;20527;-63
2024/01/09 04:58:54;;;;;;;17.23;8.80;;;;;;;-9.06;100.00;98094.38;5040351;28;20045;-63
2024/01/09 05:01:21;;;;;;;15.02;7.97;;;;;;;-9.05;100.00;98101.31;5044522;28;20047;-63
2024/01/09 05:03:49;;;;;;;21.45;10.23;;;;;;;-9.03;100.00;98094.19;5041959;28;20040;-63
2024/01/09 05:06:17;;;;;;;20.02;9.02;;;;;;;-8.96;100.00;98094.56;5042702;28;20049;-63
2024/01/09 05:08:45;;;;;;;17.38;7.72;;;;;;;-9.05;100.00;98091.66;5043643;28;20500;-63
2024/01/09 05:11:12;;;;;;;16.27;7.82;;;;;;;-9.01;100.00;98097.50;5045934;28;20041;-63
2024/01/09 05:13:44;;;;;;;13.63;7.63;;;;;;;-9.09;100.00;98090.19;5034227;28;20069;-63
2024/01/09 05:16:10;;;;;;;15.38;7.38;;;;;;;-9.08;100.00;98088.41;5042759;28;20040;-63
2024/01/09 05:18:37;;;;;;;16.20;8.00;;;;;;;-9.07;100.00;98090.09;5041405;28;20037;-63
2024/01/09 05:21:04;;;;;;;16.15;8.02;;;;;;;-9.08;100.00;98089.25;5045354;28;20124;-63
2024/01/09 05:23:31;;;;;;;18.42;8.65;;;;;;;-9.07;100.00;98090.91;5043996;28;20394;-63
2024/01/09 05:25:57;;;;;;;15.50;8.65;;;;;;;-9.06;100.00;98102.25;5037208;28;20040;-64
2024/01/09 05:28:24;;;;;;;17.48;8.52;;;;;;;-9.11;100.00;98094.69;5041661;28;20079;-63
2024/01/09 05:30:50;;;;;;;16.77;7.72;;;;;;;-9.15;100.00;98095.88;5038244;28;20052;-63
2024/01/09 05:33:18;;;;;;;20.05;8.35;;;;;;;-9.14;100.00;98101.00;5043762;28;20092;-62
2024/01/09 05:35:45;;;;;;;20.42;9.70;;;;;;;-9.09;100.00;98099.84;5039790;28;20034;-62
2024/01/09 05:38:11;;;;;;;21.73;10.52;;;;;;;-9.07;100.00;98104.03;5046045;28;20076;-62
2024/01/09 05:40:45;;;;;;;18.52;9.82;;;;;;;-9.09;100.00;98110.34;5042525;28;20275;-64
2024/01/09 05:43:11;;;;;;;21.15;10.93;;;;;;;-9.06;100.00;98099.63;5042507;28;20531;-63
2024/01/09 05:45:38;;;;;;;21.75;10.40;;;;;;;-9.02;100.00;98106.34;5037643;28;20598;-63
2024/01/09 05:48:06;;;;;;;21.67;9.23;;;;;;;-9.08;100.00;98112.00;5045314;28;20047;-64
2024/01/09 05:50:33;;;;;;;17.30;8.25;;;;;;;-9.06;100.00;98105.72;5040646;28;20073;-63
2024/01/09 05:53:01;;;;;;;17.45;8.88;;;;;;;-9.10;100.00;98104.28;5041398;28;20048;-63
2024/01/09 05:55:28;;;;;;;18.08;8.25;;;;;;;-9.10;100.00;98106.91;5032775;28;20118;-63
2024/01/09 05:57:54;;;;;;;14.65;7.97;;;;;;;-9.14;100.00;98111.50;5041363;28;20505;-63
2024/01/09 06:00:21;;;;;;;16.13;9.20;;;;;;;-9.16;100.00;98107.31;5038098;28;20119;-63
2024/01/09 06:02:48;;;;;;;17.45;7.25;;;;;;;-9.19;100.00;98111.00;5034123;28;20048;-64
2024/01/09 06:05:14;;;;;;;14.05;7.63;;;;;;;-9.23;100.00;98104.28;5040521;28;20091;-63
2024/01/09 06:07:41;;;;;;;14.05;7.78;;;;;;;-9.24;100.00;98112.25;5048323;28;20047;-63
2024/01/09 06:10:07;;;;;;;17.75;8.75;;;;;;;-9.21;100.00;98112.06;5042079;28;20519;-63
2024/01/09 06:12:34;;;;;;;18.58;8.95;;;;;;;-9.20;100.00;98114.56;5040697;28;20040;-63
2024/01/09 06:15:01;;;;;;;16.02;8.15;;;;;;;-9.17;100.00;98109.13;5036215;28;20488;-63
2024/01/09 06:17:28;;;;;;;17.98;8.43;;;;;;;-9.17;100.00;98111.75;5040034;28;20671;-64
2024/01/09 06:19:55;;;;;;;16.20;7.97;;;;;;;-9.19;100.00;98110.16;5041349;28;20045;-63
2024/01/09 06:22:21;;;;;;;17.13;8.45;;;;;;;-9.17;100.00;98109.13;5039472;28;20043;-63
2024/01/09 06:24:48;;;;;;;26.60;10.13;;;;;;;-9.16;100.00;98104.69;5042067;28;20235;-63
2024/01/09 06:27:14;;;;;;;16.45;9.30;;;;;;;-9.15;100.00;98112.47;5040426;28;20123;-64
2024/01/09 06:29:41;;;;;;;17.80;9.25;;;;;;;-9.17;100.00;98110.88;5041804;28;20037;-63
2024/01/09 06:32:07;;;;;;;15.88;7.63;;;;;;;-9.13;100.00;98114.97;5042803;28;20040;-63
2024/01/09 06:34:36;;;;;;;17.77;8.35;;;;;;;-9.12;100.00;98115.78;5041024;28;20143;-63
2024/01/09 06:37:03;;;;;;;19.95;9.48;;;;;;;-9.16;100.00;98110.78;5031563;28;20575;-64
2024/01/09 06:39:29;;;;;;;17.50;8.77;;;;;;;-9.21;100.00;98112.91;5032318;28;20480;-64
2024/01/09 06:41:56;;;;;;;17.00;8.60;;;;;;;-9.29;100.00;98116.03;5028216;28;20063;-63
2024/01/09 06:44:22;;;;;;;20.00;9.52;;;;;;;-9.31;100.00;98114.47;5033931;28;20103;-63
2024/01/09 06:46:49;;;;;;;18.38;7.45;;;;;;;-9.31;100.00;98117.94;5030363;28;20080;-64
2024/01/09 06:49:16;;;;;;;15.38;7.65;;;;;;;-9.31;100.00;98117.94;5035102;28;20045;-63
2024/01/09 06:51:44;;;;;;;16.17;7.50;;;;;;;-9.23;100.00;98108.69;5030158;28;20060;-63
2024/01/09 06:54:10;;;;;;;17.77;8.10;;;;;;;-9.32;100.00;98125.94;5030283;28;20501;-63
2024/01/09 06:56:37;;;;;;;16.60;8.48;;;;;;;-9.43;100.00;98121.44;5031956;28;20048;-63
2024/01/09 06:59:03;;;;;;;19.33;8.15;;;;;;;-9.55;100.00;98121.31;5033114;28;20086;-64
2024/01/09 07:01:30;;;;;;;14.57;6.82;;;;;;;-9.58;100.00;98125.94;5037780;28;20043;-64
2024/01/09 07:03:56;;;;;;;17.08;8.80;;;;;;;-9.64;100.00;98126.34;5039912;28;20056;-64
2024/01/09 07:06:24;;;;;;;15.23;8.43;;;;;;;-9.73;100.00;98122.59;5038842;28;20043;-63
2024/01/09 07:08:50;;;;;;;15.32;8.68;;;;;;;-9.55;100.00;98123.13;5039830;28;20040;-63
2024/01/09 07:11:17;;;;;;;16.42;10.35;;;;;;;-9.71;100.00;98125.94;5038534;28;20049;-64
2024/01/09 07:13:44;;;;;;;16.65;7.40;;;;;;;-9.69;100.00;98131.94;5039007;28;20032;-64
2024/01/09 07:16:10;;;;;;;16.85;8.40;;;;;;;-9.74;100.00;98126.16;5034778;28;20045;-64
2024/01/09 07:18:37;;;;;;;21.75;9.43;;;;;;;-9.82;100.00;98130.13;5036867;28;20145;-63
2024/01/09 07:21:04;;;;;;;20.13;9.30;;;;;;;-9.70;100.00;98130.25;5042059;28;20052;-63
2024/01/09 07:23:31;;;;;;;16.60;8.55;;;;;;;-9.67;100.00;98130.03;5036634;28;20041;-64
2024/01/09 07:25:58;;;;;;;14.88;7.45;;;;;;;-9.61;100.00;98132.25;5031335;28;20040;-64
2024/01/09 07:28:25;;;;;;;14.43;7.95;;;;;;;-9.71;100.00;98136.41;5026061;28;20448;-63
2024/01/09 07:30:56;;;;;;;16.00;8.98;;;;;;;-9.73;100.00;98123.41;5025953;28;20423;-63
2024/01/09 07:33:22;;;;;;;31.77;14.80;;;;;;;-9.68;100.00;98126.59;5037780;28;20455;-63
2024/01/09 07:35:49;;;;;;;17.83;9.80;;;;;;;-9.68;100.00;98130.97;5037576;28;20049;-63
2024/01/09 07:38:21;;;;;;;18.13;9.43;;;;;;;-9.54;100.00;98133.47;5037903;28;20048;-63
2024/01/09 07:40:48;;;;;;;15.20;8.07;;;;;;;-9.60;100.00;98136.53;5033770;28;20698;-63
2024/01/09 07:43:15;;;;;;;18.55;8.15;;;;;;;-9.49;100.00;98141.03;5035808;28;20037;-64
2024/01/09 07:45:42;;;;;;;20.25;9.05;;;;;;;-9.46;100.00;98142.59;5036056;28;20541;-63
2024/01/09 07:48:08;;;;;;;14.85;8.98;;;;;;;-9.38;100.00;98142.91;5038232;28;20075;-63
2024/01/09 07:50:35;;;;;;;18.98;8.80;;;;;;;-9.29;100.00;98146.72;5036531;28;20071;-63
2024/01/09 07:53:02;;;;;;;18.45;8.27;;;;;;;-9.21;100.00;98147.00;5035212;28;20098;-63
2024/01/09 07:55:31;;;;;;;21.17;7.95;;;;;;;-9.12;100.00;98153.38;5034218;28;20451;-63
2024/01/09 07:57:59;;;;;;;16.23;9.20;;;;;;;-9.00;100.00;98154.28;5040751;28;20056;-64
2024/01/09 08:00:26;;;;;;;23.00;9.80;;;;;;;-8.85;100.00;98155.00;5035967;28;20041;-64
2024/01/09 08:02:52;;;;;;;20.13;9.82;;;;;;;-8.78;100.00;98160.63;5039824;28;20053;-63
2024/01/09 08:05:22;;;;;;;13.77;7.55;;;;;;;-8.75;100.00;98156.03;5041173;28;20119;-63
2024/01/09 08:07:48;;;;;;;19.23;7.88;;;;;;;-8.66;100.00;98153.69;5039870;28;20489;-63
2024/01/09 08:10:16;;;;;;;29.65;8.55;;;;;;;-8.67;100.00;98150.22;5041890;28;20037;-63
2024/01/09 08:12:42;;;;;;;18.75;9.43;;;;;;;-8.55;100.00;98158.16;5040325;28;20110;-64
2024/01/09 08:15:09;;;;;;;14.30;7.45;;;;;;;-8.54;100.00;98159.84;5039332;28;20040;-63
2024/01/09 08:17:35;;;;;;;17.67;8.13;;;;;;;-8.48;100.00;98157.56;5036260;28;20055;-64
2024/01/09 08:20:03;;;;;;;23.20;9.32;;;;;;;-8.54;100.00;98150.19;5037901;28;20492;-50
2024/01/09 08:22:30;;;;;;;15.35;8.82;;;;;;;-8.29;100.00;98150.97;5041258;28;20064;-51
2024/01/09 08:24:56;;;;;;;15.82;7.90;;;;;;;-8.16;100.00;98147.44;5036163;28;20041;-49
2024/01/09 08:27:23;;;;;;;18.98;8.23;;;;;;;-8.18;100.00;98154.59;5036700;28;20064;-50
2024/01/09 08:29:50;;;;;;;15.93;7.43;;;;;;;-8.26;100.00;98156.00;5029942;28;20114;-47
2024/01/09 08:32:18;;;;;;;20.73;9.30;;;;;;;-8.34;100.00;98157.53;5031094;28;20478;-50
2024/01/09 08:34:44;;;;;;;20.55;8.55;;;;;;;-8.33;100.00;98154.81;5048529;28;20392;-63
2024/01/09 08:37:11;;;;;;;21.98;9.65;;;;;;;-8.34;100.00;98154.91;5030563;28;20045;-62
2024/01/09 08:39:38;;;;;;;19.40;9.13;;;;;;;-8.31;100.00;98150.25;5030799;28;20045;-62
2024/01/09 08:42:04;;;;;;;15.50;9.07;;;;;;;-8.28;100.00;98159.69;5041750;28;20091;-64
2024/01/09 08:44:32;;;;;;;15.95;8.38;;;;;;;-8.25;100.00;98155.03;5040279;28;20049;-63
2024/01/09 08:46:58;;;;;;;14.73;8.10;;;;;;;-8.24;100.00;98163.78;5039990;28;20044;-63
2024/01/09 08:49:25;;;;;;;13.32;6.60;;;;;;;-8.24;100.00;98161.16;5039367;28;20033;-63
2024/01/09 08:51:52;;;;;;;13.23;7.45;;;;;;;-8.17;100.00;98151.88;5035360;28;20053;-62
2024/01/09 08:54:20;;;;;;;16.50;8.55;;;;;;;-8.11;100.00;98155.84;5039112;28;20102;-63
2024/01/09 08:56:47;;;;;;;17.80;8.40;;;;;;;-8.05;100.00;98157.16;5031598;28;20568;-64
2024/01/09 08:59:14;;;;;;;15.95;7.97;;;;;;;-8.02;100.00;98151.66;5041637;28;20540;-63
2024/01/09 09:01:40;;;;;;;17.65;8.00;;;;;;;-7.93;100.00;98155.41;5041462;28;20045;-63
2024/01/09 09:04:07;;;;;;;16.67;7.13;;;;;;;-7.81;100.00;98149.25;5040519;28;20041;-62
2024/01/09 09:06:34;;;;;;;16.38;7.10;;;;;;;-7.79;100.00;98149.94;5040840;28;20072;-64
2024/01/09 09:09:01;;;;;;;14.32;7.70;;;;;;;-7.71;100.00;98150.22;5040397;28;20573;-63
2024/01/09 09:11:27;;;;;;;15.30;7.43;;;;;;;-7.63;100.00;98157.50;5045625;28;20045;-61
2024/01/09 09:13:54;;;;;;;15.52;7.32;;;;;;;-7.59;100.00;98158.13;5040645;28;20046;-62
2024/01/09 09:16:22;;;;;;;16.67;7.60;;;;;;;-7.46;100.00;98147.50;5046243;28;20037;-69
2024/01/09 09:18:48;;;;;;;12.85;6.50;;;;;;;-7.29;100.00;98151.47;5043439;28;20050;-62
2024/01/09 09:21:17;;;;;;;15.43;6.85;;;;;;;-7.37;100.00;98153.84;5034732;28;20053;-62
2024/01/09 09:23:44;;;;;;;14.23;7.40;;;;;;;-7.38;100.00;98157.44;5036495;28;20071;-65
2024/01/09 09:26:12;;;;;;;17.35;7.07;;;;;;;-7.39;100.00;98153.13;5040235;28;20096;-64
2024/01/09 09:28:40;;;;;;;15.18;6.57;;;;;;;-7.41;100.00;98160.31;5044316;28;20045;-64
2024/01/09 09:31:27;;;;;;;14.77;7.95;;;;;;;-7.33;100.00;98156.09;5037210;28;20053;-64
2024/01/09 09:33:55;;;;;;;15.75;6.47;;;;;;;-7.22;100.00;98152.66;5038851;28;20033;-63
2024/01/09 09:36:22;;;;;;;13.60;6.93;;;;;;;-7.11;100.00;98159.69;5044065;28;20060;-64
2024/01/09 09:38:52;;;;;;;15.65;7.38;;;;;;;-7.00;100.00;98163.31;5038767;28;20076;-64
2024/01/09 09:41:21;;;;;;;22.85;8.18;;;;;;;-6.98;100.00;98153.47;5039962;28;20060;-63
2024/01/09 09:43:50;;;;;;;18.92;8.00;;;;;;;-6.92;100.00;98147.75;5039508;28;20126;-63
2024/01/09 09:46:25;;;;;;;19.40;6.57;;;;;;;-6.79;100.00;98153.72;5041579;28;20054;-63
2024/01/09 09:48:54;;;;;;;17.98;8.68;;;;;;;-6.80;100.00;98153.81;5037349;28;20064;-66
2024/01/09 09:51:22;;;;;;;18.40;7.55;;;;;;;-6.80;100.00;98148.56;5040945;28;20454;-66
2024/01/09 09:53:54;;;;;;;20.55;7.47;;;;;;;-6.68;100.00;98150.22;5039221;28;20061;-65
2024/01/09 09:56:22;;;;;;;14.88;7.68;;;;;;;-6.55;100.00;98146.59;5047995;28;20045;-63
2024/01/09 09:58:49;;;;;;;13.82;6.55;;;;;;;-6.43;100.00;98152.66;5036072;28;20427;-63
2024/01/09 10:01:18;;;;;;;14.20;6.97;;;;;;;-6.35;99.14;98144.97;5041614;28;20037;-64
2024/01/09 10:04:07;;;;;;;16.95;8.60;;;;;;;-6.26;97.73;98146.03;5038162;28;20098;-64
2024/01/09 10:06:37;;;;;;;16.90;6.40;;;;;;;-6.13;96.78;98143.22;5036387;28;20055;-64
2024/01/09 10:09:06;;;;;;;14.68;7.22;;;;;;;-6.09;93.00;98135.91;5038057;28;20053;-62
2024/01/09 10:11:33;;;;;;;12.45;6.85;;;;;;;-6.03;91.13;98133.56;5035168;28;20041;-62
2024/01/09 10:14:00;;;;;;;13.50;6.82;;;;;;;-5.94;90.10;98129.31;5041771;28;20124;-63
2024/01/09 10:16:26;;;;;;;14.23;7.07;;;;;;;-5.91;89.48;98136.97;5039067;28;20044;-61
2024/01/09 10:18:56;;;;;;;15.05;8.05;;;;;;;-5.79;89.22;98129.84;5037903;28;20120;-62
2024/01/09 10:21:23;;;;;;;15.93;6.57;;;;;;;-5.72;89.53;98132.78;5047876;28;20047;-64
2024/01/09 10:23:49;;;;;;;13.07;6.25;;;;;;;-5.70;87.32;98130.88;5039348;28;20049;-64
2024/01/09 10:26:16;;;;;;;17.90;7.35;;;;;;;-5.64;87.26;98129.53;5042547;28;20480;-64
2024/01/09 10:28:42;;;;;;;20.35;7.40;;;;;;;-5.66;87.06;98126.16;5038702;28;20390;-64
2024/01/09 10:31:09;;;;;;;13.90;6.82;;;;;;;-5.71;86.39;98123.94;5040254;28;20047;-64
2024/01/09 10:33:42;;;;;;;12.57;6.68;;;;;;;-5.65;86.42;98131.31;5037923;28;20041;-64
2024/01/09 10:36:09;;;;;;;15.82;7.55;;;;;;;-5.62;86.59;98130.22;5037487;28;20045;-64
2024/01/09 10:38:36;;;;;;;13.18;6.53;;;;;;;-5.53;86.16;98123.34;5037540;28;20040;-64
2024/01/09 10:41:19;;;;;;;15.18;7.25;;;;;;;-5.50;85.00;98129.19;5039835;28;20067;-64
2024/01/09 10:43:49;;;;;;;13.93;7.30;;;;;;;-5.49;84.48;98122.91;5038186;28;20154;-64
2024/01/09 10:46:15;;;;;;;16.52;7.28;;;;;;;-5.53;83.84;98126.78;5040613;28;20646;-64
2024/01/09 10:48:45;;;;;;;14.65;7.07;;;;;;;-5.52;83.70;98120.56;5039757;28;20069;-64
2024/01/09 10:51:14;;;;;;;16.20;7.43;;;;;;;-5.38;84.24;98119.38;5036307;28;20045;-64
2024/01/09 10:53:44;;;;;;;15.90;7.65;;;;;;;-5.41;83.55;98113.53;5036715;28;20519;-64
2024/01/09 10:56:15;;;;;;;16.83;7.57;;;;;;;-5.36;83.20;98117.44;5033854;28;20087;-64
2024/01/09 10:58:46;;;;;;;15.20;7.07;;;;;;;-5.31;80.88;98121.50;5029019;28;20234;-64
2024/01/09 11:01:16;;;;;;;13.53;6.73;;;;;;;-5.34;80.58;98114.69;5036120;28;20121;-64
2024/01/09 11:03:43;;;;;;;16.67;8.15;;;;;;;-5.25;80.71;98119.16;5039388;28;20041;-64
2024/01/09 11:06:14;;;;;;;14.43;6.60;;;;;;;-5.20;81.41;98121.38;5040842;28;20052;-64
2024/01/09 11:08:48;;;;;;;14.20;6.57;;;;;;;-5.09;81.83;98110.72;5039886;28;20593;-64
2024/01/09 11:11:18;;;;;;;12.30;6.97;;;;;;;-4.98;80.58;98109.78;5034104;28;20114;-64
2024/01/09 11:13:51;;;;;;;12.75;6.78;;;;;;;-4.97;80.08;98098.25;5038755;28;20520;-64
2024/01/09 11:16:19;;;;;;;11.65;6.25;;;;;;;-4.88;80.40;98101.06;5040996;28;20252;-64
2024/01/09 11:18:46;;;;;;;18.40;7.32;;;;;;;-4.92;79.02;98103.16;5030860;28;20610;-64